Rio Mayo, Argentina
Current Conditions -  °F | °C
As of 6:00 AM on Saturday 22 Nov 2014 (Local Time) from SCBA Reporting Station
Overcast Overcast  
Wind Chill: 41°   Ceiling: 4600
Heat Index: 46°   Visibility: 6mi
Dew Point: 39°   Wind: 12mph
Humidity: 76%   Direction: 310°NW
Pressure: 29.83"   Gusts: NA
Location:  45.68°S, 70.27°W
Report Text: SCBA 220900Z AUTO 31010KT 9999 FEW036 SCT039 OVC046 08/04 Q1010
Loading
Personal Weather Stations






























Interactive Weather Map New forecast layout! Learn more

10-Day Weather Forecast

Advertisements
Track Severe Weather on mobile